createdAt,value
2022-10-09T00:02:11.083Z,61.39
2022-10-09T00:04:40.352Z,61.18
2022-10-09T00:07:09.652Z,61.29
2022-10-09T00:09:38.646Z,61.10
2022-10-09T00:12:07.791Z,61.03
2022-10-09T00:14:37.103Z,60.98
2022-10-09T00:17:06.276Z,60.98
2022-10-09T00:19:35.371Z,61.14
2022-10-09T00:22:04.529Z,61.14
2022-10-09T00:24:33.757Z,61.19
2022-10-09T00:27:02.886Z,61.19
2022-10-09T00:29:32.566Z,61.41
2022-10-09T00:32:01.662Z,61.43
2022-10-09T00:34:30.964Z,61.56
2022-10-09T00:37:00.359Z,61.52
2022-10-09T00:39:30.386Z,61.67
2022-10-09T00:41:59.954Z,61.67
2022-10-09T00:44:53.769Z,61.48
2022-10-09T00:47:28.594Z,61.54
2022-10-09T00:50:03.282Z,61.70
2022-10-09T00:52:33.256Z,61.80
2022-10-09T00:55:04.388Z,61.94
2022-10-09T00:57:34.409Z,62.04
2022-10-09T01:00:08.871Z,62.11
2022-10-09T01:02:38.711Z,62.17
2022-10-09T01:05:11.917Z,62.43
2022-10-09T01:07:49.260Z,62.45
2022-10-09T01:10:30.670Z,62.50
2022-10-09T01:13:06.929Z,62.48
2022-10-09T01:15:44.470Z,62.46
2022-10-09T01:18:21.880Z,62.50
2022-10-09T01:20:54.708Z,62.26
2022-10-09T01:23:43.146Z,62.10
2022-10-09T01:26:35.370Z,62.25
2022-10-09T01:29:09.723Z,62.25
2022-10-09T01:31:43.475Z,62.32
2022-10-09T01:34:14.540Z,62.43
2022-10-09T01:36:46.093Z,62.44
2022-10-09T01:39:19.266Z,62.31
2022-10-09T01:41:51.135Z,62.37
2022-10-09T01:44:22.282Z,62.45
2022-10-09T01:46:51.718Z,62.59
2022-10-09T01:49:32.606Z,62.73
2022-10-09T01:52:06.787Z,62.83
2022-10-09T01:54:43.863Z,62.92
2022-10-09T01:57:18.794Z,62.99
2022-10-09T01:59:50.445Z,62.96
2022-10-09T02:02:21.216Z,62.78
2022-10-09T02:04:52.088Z,63.11
2022-10-09T02:07:23.455Z,63.24
2022-10-09T02:09:53.816Z,63.32
2022-10-09T02:12:25.385Z,63.19
2022-10-09T02:14:54.628Z,63.30
2022-10-09T02:17:29.987Z,63.57
2022-10-09T02:20:04.598Z,63.72
2022-10-09T02:22:34.752Z,63.81
2022-10-09T02:25:07.228Z,63.73
2022-10-09T02:27:37.109Z,63.62
2022-10-09T02:30:11.054Z,63.63
2022-10-09T02:32:40.178Z,63.69
2022-10-09T02:35:10.229Z,63.86
2022-10-09T02:37:39.268Z,64.08
2022-10-09T02:40:10.951Z,64.07
2022-10-09T02:42:41.920Z,64.08
2022-10-09T02:45:11.985Z,64.14
2022-10-09T02:47:41.106Z,64.22
2022-10-09T02:50:11.477Z,64.06
2022-10-09T02:52:40.495Z,64.06
2022-10-09T02:55:10.305Z,63.81
2022-10-09T02:57:40.864Z,63.70
2022-10-09T03:00:14.122Z,63.77
2022-10-09T03:02:43.398Z,63.84
2022-10-09T03:05:12.897Z,63.74
2022-10-09T03:07:42.129Z,63.67
2022-10-09T03:10:12.677Z,63.81
2022-10-09T03:12:41.733Z,63.87
2022-10-09T03:15:12.112Z,63.86
2022-10-09T03:17:41.746Z,63.93
2022-10-09T03:20:11.292Z,63.90
2022-10-09T03:22:40.397Z,63.93
2022-10-09T03:25:10.097Z,63.92
2022-10-09T03:27:39.656Z,63.75
2022-10-09T03:30:11.204Z,63.48
2022-10-09T03:32:40.342Z,63.49
2022-10-09T03:35:10.135Z,63.47
2022-10-09T03:37:39.333Z,63.51
2022-10-09T03:40:10.788Z,63.65
2022-10-09T03:42:39.861Z,63.65
2022-10-09T03:45:10.853Z,63.83
2022-10-09T03:47:39.871Z,63.85
2022-10-09T03:50:13.206Z,64.01
2022-10-09T03:52:42.405Z,64.17
2022-10-09T03:55:11.367Z,64.10
2022-10-09T03:57:40.940Z,63.98
2022-10-09T04:00:13.411Z,63.94
2022-10-09T04:02:42.679Z,63.91
2022-10-09T04:05:11.892Z,63.88
2022-10-09T04:07:40.842Z,63.90
2022-10-09T04:10:11.579Z,63.92
2022-10-09T04:12:43.761Z,63.82
2022-10-09T04:15:12.678Z,63.76
2022-10-09T04:17:41.847Z,63.84
2022-10-09T04:20:11.203Z,63.88
2022-10-09T04:22:40.181Z,63.88
2022-10-09T04:25:10.314Z,63.87
2022-10-09T04:27:39.375Z,63.98
2022-10-09T04:30:11.040Z,64.17
2022-10-09T04:32:40.106Z,64.26
2022-10-09T04:35:09.967Z,64.24
2022-10-09T04:37:40.628Z,64.24
2022-10-09T04:40:10.540Z,64.36
2022-10-09T04:42:39.695Z,64.36
2022-10-09T04:45:10.906Z,64.35
2022-10-09T04:47:40.192Z,64.40
2022-10-09T04:50:10.934Z,64.37
2022-10-09T04:52:39.860Z,64.43
2022-10-09T04:55:10.073Z,64.30
2022-10-09T04:57:42.327Z,64.33
2022-10-09T05:00:14.588Z,64.26
2022-10-09T05:02:43.741Z,64.35
2022-10-09T05:05:13.075Z,64.28
2022-10-09T05:07:42.132Z,64.32
2022-10-09T05:10:11.397Z,64.37
2022-10-09T05:12:40.608Z,64.35
2022-10-09T05:15:11.029Z,64.28
2022-10-09T05:17:40.202Z,64.39
2022-10-09T05:20:11.821Z,64.37
2022-10-09T05:22:43.662Z,64.25
2022-10-09T05:25:12.958Z,64.31
2022-10-09T05:27:42.064Z,64.41
2022-10-09T05:30:12.896Z,64.35
2022-10-09T05:32:41.836Z,64.28
2022-10-09T05:35:11.187Z,64.35
2022-10-09T05:37:40.461Z,64.38
2022-10-09T05:40:12.045Z,64.27
2022-10-09T05:42:43.098Z,64.12
2022-10-09T05:45:12.849Z,64.15
2022-10-09T05:47:42.005Z,64.18
2022-10-09T05:50:11.435Z,64.29
2022-10-09T05:52:43.604Z,64.11
2022-10-09T05:55:12.798Z,64.23
2022-10-09T05:57:42.179Z,64.24
2022-10-09T06:00:14.370Z,64.25
2022-10-09T06:02:43.484Z,64.12
2022-10-09T06:05:12.559Z,64.12
2022-10-09T06:07:41.769Z,64.28
2022-10-09T06:10:14.863Z,64.27
2022-10-09T06:12:48.871Z,64.08
2022-10-09T06:15:20.443Z,64.13
2022-10-09T06:17:51.462Z,64.04
2022-10-09T06:20:20.850Z,64.06
2022-10-09T06:22:52.429Z,64.12
2022-10-09T06:25:26.096Z,64.04
2022-10-09T06:28:03.438Z,63.94
2022-10-09T06:30:38.424Z,64.06
2022-10-09T06:33:08.101Z,63.95
2022-10-09T06:35:37.344Z,63.90
2022-10-09T06:38:07.403Z,63.79
2022-10-09T06:40:37.005Z,63.69
2022-10-09T06:43:07.548Z,63.65
2022-10-09T06:45:38.729Z,63.58
2022-10-09T06:48:08.236Z,63.54
2022-10-09T06:50:39.492Z,63.45
2022-10-09T06:53:09.421Z,63.27
2022-10-09T06:55:51.170Z,63.19
2022-10-09T06:58:21.016Z,62.92
2022-10-09T07:00:50.419Z,62.85
2022-10-09T07:03:20.011Z,62.67
2022-10-09T07:05:49.178Z,62.06
2022-10-09T07:08:31.270Z,61.87
2022-10-09T07:11:00.606Z,61.96
2022-10-09T07:13:36.669Z,62.07
2022-10-09T07:16:08.124Z,62.25
2022-10-09T07:18:38.429Z,62.14
2022-10-09T07:21:11.431Z,61.98
2022-10-09T07:23:40.888Z,61.95
2022-10-09T07:26:20.617Z,61.91
2022-10-09T07:28:53.325Z,61.87
2022-10-09T07:31:22.593Z,61.59
2022-10-09T07:33:52.810Z,61.43
2022-10-09T07:36:22.975Z,61.17
2022-10-09T07:38:54.162Z,61.13
2022-10-09T07:41:27.428Z,61.07
2022-10-09T07:43:57.381Z,61.01
2022-10-09T07:54:54.645Z,59.95
2022-10-09T07:57:25.211Z,59.75
2022-10-09T08:00:04.070Z,59.15
2022-10-09T08:02:33.461Z,58.88
2022-10-09T08:05:03.647Z,59.19
2022-10-09T08:07:38.444Z,59.14
2022-10-09T08:10:09.287Z,58.95
2022-10-09T08:12:38.582Z,58.65
2022-10-09T08:15:09.855Z,58.57
2022-10-09T08:17:39.488Z,58.40
2022-10-09T08:20:10.462Z,58.31
2022-10-09T08:22:39.534Z,57.90
2022-10-09T08:25:09.718Z,57.87
2022-10-09T08:27:38.796Z,57.87
2022-10-09T08:30:10.218Z,57.57
2022-10-09T08:32:40.459Z,56.73
2022-10-09T08:35:10.874Z,57.33
2022-10-09T08:37:40.133Z,57.25
2022-10-09T08:40:16.338Z,57.13
2022-10-09T08:42:52.960Z,57.10
2022-10-09T08:45:22.222Z,56.91
2022-10-09T08:48:02.755Z,56.74
2022-10-09T08:50:50.068Z,56.48
2022-10-09T08:53:47.174Z,56.55
2022-10-09T08:56:17.011Z,56.12
2022-10-09T08:59:13.474Z,56.19
2022-10-09T09:01:49.857Z,56.02
2022-10-09T09:04:51.139Z,55.75
2022-10-09T09:07:31.227Z,55.69
2022-10-09T09:10:06.202Z,55.51
2022-10-09T09:12:46.664Z,55.05
2022-10-09T09:15:26.476Z,54.87
2022-10-09T09:18:04.590Z,55.03
2022-10-09T09:20:40.150Z,54.69
2022-10-09T09:23:15.944Z,54.25
2022-10-09T09:25:45.759Z,54.34
2022-10-09T09:28:21.518Z,54.42
2022-10-09T09:30:57.462Z,53.84
2022-10-09T09:33:38.085Z,53.82
2022-10-09T09:36:18.029Z,52.70
2022-10-09T09:39:35.131Z,52.26
2022-10-09T09:41:39.935Z,51.12
2022-10-09T09:44:11.883Z,52.31
2022-10-09T09:46:41.829Z,52.49
2022-10-09T09:49:19.299Z,52.72
2022-10-09T09:51:50.581Z,52.47
2022-10-09T09:54:22.557Z,52.21
2022-10-09T09:57:11.901Z,52.01
2022-10-09T09:59:44.255Z,51.75
2022-10-09T10:02:34.613Z,51.36
2022-10-09T10:05:20.573Z,51.71
2022-10-09T10:07:51.105Z,51.61
2022-10-09T10:10:25.382Z,51.39
2022-10-09T10:13:00.164Z,51.33
2022-10-09T10:15:32.548Z,51.07
2022-10-09T10:18:05.526Z,51.12
2022-10-09T10:20:47.011Z,51.06
2022-10-09T10:23:32.386Z,50.25
2022-10-09T10:26:06.905Z,49.32
2022-10-09T10:28:45.935Z,50.09
2022-10-09T10:31:26.322Z,50.12
2022-10-09T10:33:58.041Z,49.17
2022-10-09T10:36:28.807Z,49.15
2022-10-09T10:39:05.339Z,49.55
2022-10-09T10:41:44.941Z,49.35
2022-10-09T10:44:30.930Z,49.40
2022-10-09T10:47:07.230Z,49.28
2022-10-09T10:49:37.008Z,49.24
2022-10-09T10:52:28.379Z,49.04
2022-10-09T10:55:08.054Z,48.62
2022-10-09T10:57:55.603Z,48.63
2022-10-09T11:00:26.898Z,48.69
2022-10-09T11:03:15.496Z,48.40
2022-10-09T11:05:51.333Z,47.14
2022-10-09T11:08:45.588Z,46.93
2022-10-09T11:11:22.164Z,47.05
2022-10-09T11:14:02.561Z,47.10
2022-10-09T11:16:44.282Z,47.20
2022-10-09T11:19:33.045Z,47.14
2022-10-09T11:22:10.660Z,46.64
2022-10-09T11:25:05.000Z,46.94
2022-10-09T11:27:43.041Z,46.93
2022-10-09T11:30:14.868Z,46.86
2022-10-09T11:32:55.911Z,46.58
2022-10-09T11:35:29.718Z,45.48
2022-10-09T11:38:02.316Z,45.95
2022-10-09T11:40:36.909Z,45.94
2022-10-09T11:43:18.398Z,45.22
2022-10-09T11:45:55.318Z,45.05
2022-10-09T11:48:35.359Z,45.26
2022-10-09T11:52:04.108Z,45.49
2022-10-09T11:54:34.631Z,45.38
2022-10-09T11:57:06.290Z,45.31
2022-10-09T11:59:37.533Z,44.88
2022-10-09T12:02:25.022Z,43.69
2022-10-09T12:04:57.052Z,44.45
2022-10-09T12:07:31.042Z,44.26
2022-10-09T12:10:12.502Z,44.47
2022-10-09T12:12:43.304Z,44.38
2022-10-09T12:15:26.889Z,44.32
2022-10-09T12:17:58.060Z,44.19
2022-10-09T12:20:29.197Z,44.05
2022-10-09T12:23:25.325Z,43.91
2022-10-09T12:25:51.446Z,43.63
2022-10-09T12:28:28.928Z,43.63
2022-10-09T12:31:00.256Z,43.38
2022-10-09T12:33:34.887Z,43.32
2022-10-09T12:36:11.469Z,43.36
2022-10-09T12:38:41.106Z,43.11
2022-10-09T12:41:21.246Z,42.74
2022-10-09T12:43:51.883Z,42.31
2022-10-09T12:46:31.989Z,42.50
2022-10-09T12:49:03.543Z,42.42
2022-10-09T12:51:34.014Z,42.38
2022-10-09T12:54:09.897Z,42.17
2022-10-09T12:56:39.905Z,42.19
2022-10-09T12:59:12.960Z,42.10
2022-10-09T13:01:43.574Z,42.07
2022-10-09T13:04:26.429Z,41.76
2022-10-09T13:06:56.781Z,41.63
2022-10-09T13:09:28.658Z,41.36
2022-10-09T13:12:04.355Z,41.19
2022-10-09T13:14:41.194Z,41.09
2022-10-09T13:17:24.776Z,40.78
2022-10-09T13:19:55.157Z,39.99
2022-10-09T13:22:25.161Z,39.87
2022-10-09T13:24:57.510Z,39.75
2022-10-09T13:27:29.663Z,40.24
2022-10-09T13:29:59.979Z,40.16
2022-10-09T13:32:29.196Z,40.06
2022-10-09T13:34:58.265Z,40.18
2022-10-09T13:37:27.702Z,40.25
2022-10-09T13:39:59.182Z,39.72
2022-10-09T13:42:32.750Z,39.57
2022-10-09T13:45:02.016Z,39.04
2022-10-09T13:47:31.478Z,38.75
2022-10-09T13:50:00.423Z,38.39
2022-10-09T13:52:29.673Z,37.69
2022-10-09T13:54:58.556Z,36.82
2022-10-09T13:57:27.540Z,36.93
2022-10-09T13:59:56.714Z,37.02
2022-10-09T14:02:25.842Z,36.94
2022-10-09T14:04:54.669Z,36.39
2022-10-09T14:07:23.607Z,36.34
2022-10-09T14:09:52.624Z,36.27
2022-10-09T14:12:21.872Z,35.52
2022-10-09T14:14:52.405Z,35.44
2022-10-09T14:17:21.453Z,35.11
2022-10-09T14:19:50.535Z,35.15
2022-10-09T14:22:19.711Z,34.67
2022-10-09T14:24:48.669Z,34.90
2022-10-09T14:27:17.543Z,34.54
2022-10-09T14:29:48.277Z,34.25
2022-10-09T14:32:17.188Z,34.18
2022-10-09T14:34:46.676Z,33.97
2022-10-09T14:37:29.668Z,33.93
2022-10-09T14:40:05.619Z,33.82
2022-10-09T14:42:36.188Z,33.38
2022-10-09T14:45:06.728Z,33.21
2022-10-09T14:47:36.101Z,33.88
2022-10-09T14:50:06.233Z,34.00
2022-10-09T14:52:35.383Z,34.14
2022-10-09T14:55:05.470Z,34.14
2022-10-09T14:57:35.585Z,34.56
2022-10-09T15:00:08.767Z,34.42
2022-10-09T15:02:38.062Z,34.44
2022-10-09T15:05:08.164Z,34.74
2022-10-09T15:07:37.166Z,34.86
2022-10-09T15:10:07.555Z,35.01
2022-10-09T15:12:36.688Z,35.24
2022-10-09T15:15:06.845Z,35.21
2022-10-09T15:17:36.281Z,35.47
2022-10-09T15:20:06.544Z,35.60
2022-10-09T15:22:35.877Z,35.99
2022-10-09T15:25:05.749Z,36.20
2022-10-09T15:27:34.808Z,36.34
2022-10-09T15:30:05.668Z,36.48
2022-10-09T15:32:34.941Z,36.71
2022-10-09T15:35:04.391Z,36.90
2022-10-09T15:37:33.853Z,37.10
2022-10-09T15:40:03.504Z,37.35
2022-10-09T15:42:32.821Z,37.48
2022-10-09T15:45:02.458Z,37.57
2022-10-09T15:47:50.395Z,37.80
2022-10-09T15:50:20.114Z,37.92
2022-10-09T15:52:49.707Z,38.02
2022-10-09T15:55:18.835Z,38.23
2022-10-09T15:57:47.871Z,38.36
2022-10-09T16:00:17.664Z,38.53
2022-10-09T16:02:46.948Z,38.74
2022-10-09T16:05:16.621Z,38.98
2022-10-09T16:07:45.978Z,39.17
2022-10-09T16:10:15.118Z,39.28
2022-10-09T16:12:44.435Z,39.49
2022-10-09T16:15:13.459Z,39.67
2022-10-09T16:17:42.549Z,39.87
2022-10-09T16:20:12.028Z,40.13
2022-10-09T16:22:40.956Z,40.24
2022-10-09T16:25:11.126Z,40.63
2022-10-09T16:27:40.290Z,40.61
2022-10-09T16:30:13.290Z,40.99
2022-10-09T16:32:42.689Z,41.25
2022-10-09T16:35:11.955Z,41.46
2022-10-09T16:37:41.018Z,41.57
2022-10-09T16:40:11.541Z,41.91
2022-10-09T16:42:40.755Z,41.77
2022-10-09T16:45:11.504Z,41.96
2022-10-09T16:47:40.867Z,42.42
2022-10-09T16:50:11.072Z,42.37
2022-10-09T16:52:40.268Z,42.47
2022-10-09T16:55:10.616Z,42.65
2022-10-09T16:57:39.824Z,42.84
2022-10-09T17:00:12.208Z,43.09
2022-10-09T17:02:41.583Z,43.03
2022-10-09T17:05:11.000Z,42.77
2022-10-09T17:07:40.128Z,42.85
2022-10-09T17:10:10.473Z,42.73
2022-10-09T17:12:39.647Z,42.79
2022-10-09T17:15:09.773Z,42.91
2022-10-09T17:17:39.022Z,42.93
2022-10-09T17:20:09.744Z,42.79
2022-10-09T17:22:39.018Z,43.03
2022-10-09T17:25:09.089Z,42.95
2022-10-09T17:27:38.400Z,43.03
2022-10-09T17:30:10.172Z,43.24
2022-10-09T17:32:39.445Z,43.20
2022-10-09T17:35:09.599Z,43.21
2022-10-09T17:37:38.762Z,43.21
2022-10-09T17:40:09.374Z,43.42
2022-10-09T17:42:38.376Z,43.29
2022-10-09T17:45:09.962Z,43.47
2022-10-09T17:47:39.258Z,43.44
2022-10-09T17:50:10.064Z,43.46
2022-10-09T17:52:39.496Z,43.66
2022-10-09T17:55:09.870Z,43.69
2022-10-09T17:57:39.070Z,43.85
2022-10-09T18:00:10.692Z,43.90
2022-10-09T18:02:40.150Z,43.74
2022-10-09T18:05:09.643Z,43.89
2022-10-09T18:07:38.796Z,43.93
2022-10-09T18:10:09.374Z,43.62
2022-10-09T18:12:38.609Z,43.92
2022-10-09T18:15:09.611Z,43.85
2022-10-09T18:17:38.837Z,44.05
2022-10-09T18:20:09.476Z,43.81
2022-10-09T18:22:38.725Z,43.90
2022-10-09T18:25:08.774Z,44.16
2022-10-09T18:27:38.108Z,44.07
2022-10-09T18:30:09.514Z,44.04
2022-10-09T18:32:39.561Z,44.06
2022-10-09T18:35:09.539Z,44.19
2022-10-09T18:37:38.575Z,44.24
2022-10-09T18:40:09.487Z,44.27
2022-10-09T18:42:38.517Z,44.31
2022-10-09T18:45:10.213Z,44.47
2022-10-09T18:47:40.543Z,44.50
2022-10-09T18:50:12.797Z,44.46
2022-10-09T18:52:45.545Z,44.48
2022-10-09T18:55:17.704Z,44.54
2022-10-09T18:57:47.317Z,44.59
2022-10-09T19:00:17.305Z,44.60
2022-10-09T19:02:46.155Z,44.68
2022-10-09T19:05:15.660Z,44.69
2022-10-09T19:07:44.708Z,44.80
2022-10-09T19:10:13.919Z,45.07
2022-10-09T19:12:43.124Z,45.16
2022-10-09T19:15:12.535Z,45.16
2022-10-09T19:17:41.494Z,45.56
2022-10-09T19:20:11.134Z,45.59
2022-10-09T19:22:41.097Z,45.57
2022-10-09T19:25:10.342Z,45.54
2022-10-09T19:27:39.707Z,45.70
2022-10-09T19:30:11.113Z,45.91
2022-10-09T19:32:39.949Z,45.90
2022-10-09T19:35:09.775Z,46.06
2022-10-09T19:37:38.748Z,46.07
2022-10-09T19:40:10.026Z,46.27
2022-10-09T19:42:40.283Z,46.39
2022-10-09T19:45:10.541Z,46.59
2022-10-09T19:47:39.401Z,46.59
2022-10-09T19:50:09.836Z,46.48
2022-10-09T19:52:38.826Z,46.76
2022-10-09T19:55:09.519Z,46.49
2022-10-09T19:57:38.879Z,46.59
2022-10-09T20:00:11.070Z,46.81
2022-10-09T20:02:53.249Z,46.78
2022-10-09T20:05:26.870Z,46.77
2022-10-09T20:08:23.753Z,46.78
2022-10-09T20:11:30.630Z,46.88
2022-10-09T20:14:05.253Z,46.86
2022-10-09T20:16:36.158Z,46.85
2022-10-09T20:19:16.728Z,46.86
2022-10-09T20:21:47.561Z,46.94
2022-10-09T20:24:16.685Z,47.05
2022-10-09T20:26:55.340Z,46.86
2022-10-09T20:29:26.554Z,46.94
2022-10-09T20:31:55.776Z,46.96
2022-10-09T20:34:26.319Z,46.99
2022-10-09T20:36:55.294Z,46.95
2022-10-09T20:39:24.354Z,46.77
2022-10-09T20:41:56.671Z,46.73
2022-10-09T20:44:26.026Z,46.72
2022-10-09T20:46:56.241Z,46.76
2022-10-09T20:49:26.949Z,46.67
2022-10-09T20:51:56.236Z,46.83
2022-10-09T20:54:25.208Z,46.74
2022-10-09T20:56:54.472Z,46.80
2022-10-09T20:59:23.519Z,46.61
2022-10-09T21:01:59.609Z,46.71
2022-10-09T21:04:28.684Z,46.77
2022-10-09T21:06:59.097Z,46.62
2022-10-09T21:09:32.957Z,46.46
2022-10-09T21:12:04.665Z,46.53
2022-10-09T21:14:37.084Z,46.41
2022-10-09T21:17:12.746Z,46.54
2022-10-09T21:19:43.803Z,46.58
2022-10-09T21:22:17.848Z,46.52
2022-10-09T21:24:47.386Z,46.49
2022-10-09T21:27:16.516Z,46.42
2022-10-09T21:29:50.910Z,46.61
2022-10-09T21:32:24.995Z,46.40
2022-10-09T21:35:21.047Z,46.63
2022-10-09T21:38:04.477Z,46.61
2022-10-09T21:40:33.271Z,46.54
2022-10-09T21:43:10.316Z,46.57
2022-10-09T21:45:39.804Z,46.53
2022-10-09T21:48:11.672Z,46.61
2022-10-09T21:50:40.968Z,46.80
2022-10-09T21:53:09.910Z,46.77
2022-10-09T21:55:38.952Z,46.89
2022-10-09T21:58:08.434Z,46.80
2022-10-09T22:00:37.110Z,46.71
2022-10-09T22:03:05.879Z,46.82
2022-10-09T22:05:34.812Z,46.92
2022-10-09T22:08:03.503Z,46.91
2022-10-09T22:10:32.224Z,46.91
2022-10-09T22:13:01.509Z,46.93
2022-10-09T22:15:30.150Z,47.10
2022-10-09T22:17:58.906Z,47.24
2022-10-09T22:20:28.110Z,47.01
2022-10-09T22:22:56.857Z,47.38
2022-10-09T22:25:25.682Z,47.29
2022-10-09T22:27:54.799Z,47.28
2022-10-09T22:30:23.515Z,47.25
2022-10-09T22:32:54.389Z,47.32
2022-10-09T22:35:23.797Z,47.38
2022-10-09T22:37:52.562Z,47.37
2022-10-09T22:40:21.470Z,47.36
2022-10-09T22:42:50.700Z,47.49
2022-10-09T22:45:19.579Z,47.51
2022-10-09T22:47:48.505Z,47.41
2022-10-09T22:50:17.726Z,47.32
2022-10-09T22:52:46.631Z,47.33
2022-10-09T22:55:15.859Z,47.50
2022-10-09T22:57:44.870Z,47.41
2022-10-09T23:00:15.854Z,47.33
2022-10-09T23:02:44.605Z,47.32
2022-10-09T23:05:13.725Z,47.45
2022-10-09T23:07:42.672Z,47.59
2022-10-09T23:10:11.654Z,47.44
2022-10-09T23:12:40.672Z,47.53
2022-10-09T23:15:10.763Z,47.40
2022-10-09T23:17:39.534Z,47.44
2022-10-09T23:20:10.221Z,47.45
2022-10-09T23:22:38.942Z,47.35
2022-10-09T23:25:09.794Z,47.35
2022-10-09T23:27:38.827Z,47.36
2022-10-09T23:30:09.828Z,47.37
2022-10-09T23:32:38.849Z,47.15
2022-10-09T23:35:09.021Z,47.14
2022-10-09T23:37:37.890Z,47.08
2022-10-09T23:40:08.327Z,47.18
2022-10-09T23:42:37.204Z,47.11
2022-10-09T23:45:08.515Z,47.10
2022-10-09T23:47:37.624Z,47.01
2022-10-09T23:50:07.465Z,47.07
2022-10-09T23:52:36.482Z,46.97
2022-10-09T23:55:07.096Z,46.99
2022-10-09T23:57:36.464Z,46.84
